createdAt,value
2019-04-25T00:00:11.720Z,63.62
2019-04-25T00:02:42.656Z,63.54
2019-04-25T00:05:11.960Z,63.92
2019-04-25T00:07:42.459Z,63.64
2019-04-25T00:10:11.701Z,64.01
2019-04-25T00:12:42.375Z,63.95
2019-04-25T00:15:11.175Z,64.06
2019-04-25T00:17:40.501Z,64.00
2019-04-25T00:20:11.371Z,64.32
2019-04-25T00:22:58.773Z,64.41
2019-04-25T00:25:38.007Z,64.26
2019-04-25T00:28:07.593Z,64.31
2019-04-25T00:30:35.778Z,64.21
2019-04-25T00:33:03.721Z,64.36
2019-04-25T00:35:31.638Z,64.71
2019-04-25T00:38:00.181Z,64.78
2019-04-25T00:40:28.889Z,64.74
2019-04-25T00:42:56.996Z,65.20
2019-04-25T00:45:24.901Z,65.33
2019-04-25T00:47:53.006Z,65.26
2019-04-25T00:50:21.923Z,65.50
2019-04-25T00:52:52.164Z,65.50
2019-04-25T00:55:26.873Z,65.64
2019-04-25T00:57:53.639Z,65.98
2019-04-25T01:00:41.570Z,66.05
2019-04-25T01:03:14.297Z,65.67
2019-04-25T01:05:43.383Z,66.23
2019-04-25T01:08:12.114Z,65.96
2019-04-25T01:10:41.621Z,65.96
2019-04-25T01:13:10.989Z,66.29
2019-04-25T01:15:40.544Z,66.63
2019-04-25T01:18:08.822Z,66.09
2019-04-25T01:20:37.628Z,66.31
2019-04-25T01:23:05.403Z,66.31
2019-04-25T01:25:42.252Z,66.12
2019-04-25T01:28:03.501Z,66.58
2019-04-25T01:30:31.725Z,66.31
2019-04-25T01:32:59.564Z,66.29
2019-04-25T01:35:46.224Z,66.71
2019-04-25T01:38:26.404Z,66.71
2019-04-25T01:41:11.905Z,66.97
2019-04-25T01:43:48.301Z,67.47
2019-04-25T01:46:16.533Z,67.47
2019-04-25T01:48:44.421Z,67.33
2019-04-25T01:51:14.223Z,67.66
2019-04-25T01:53:43.990Z,67.92
2019-04-25T01:56:13.517Z,68.01
2019-04-25T01:58:43.631Z,67.79
2019-04-25T02:01:14.236Z,67.77
2019-04-25T02:03:44.149Z,68.16
2019-04-25T02:06:13.622Z,68.25
2019-04-25T02:08:41.921Z,68.25
2019-04-25T02:11:28.108Z,68.48
2019-04-25T02:13:56.853Z,68.09
2019-04-25T02:16:25.216Z,68.43
2019-04-25T02:18:55.068Z,68.70
2019-04-25T02:21:23.584Z,68.42
2019-04-25T02:23:55.162Z,68.99
2019-04-25T02:26:24.028Z,69.09
2019-04-25T02:28:54.834Z,68.83
2019-04-25T02:31:24.547Z,69.11
2019-04-25T02:33:53.627Z,69.52
2019-04-25T02:36:21.696Z,69.31
2019-04-25T02:38:49.563Z,69.82
2019-04-25T02:41:17.572Z,70.35
2019-04-25T02:43:45.588Z,70.12
2019-04-25T02:46:48.144Z,70.73
2019-04-25T02:49:39.447Z,70.75
2019-04-25T02:52:28.761Z,70.28
2019-04-25T02:54:58.376Z,70.46
2019-04-25T02:57:26.538Z,70.96
2019-04-25T02:59:55.828Z,70.67
2019-04-25T03:02:24.853Z,70.87
2019-04-25T03:04:54.517Z,70.66
2019-04-25T03:07:24.534Z,71.33
2019-04-25T03:09:54.699Z,71.03
2019-04-25T03:12:30.599Z,71.13
2019-04-25T03:14:54.975Z,71.66
2019-04-25T03:17:24.667Z,71.89
2019-04-25T03:20:15.118Z,71.34
2019-04-25T03:22:44.462Z,71.55
2019-04-25T03:25:16.448Z,71.42
2019-04-25T03:27:44.102Z,72.01
2019-04-25T03:30:17.413Z,71.81
2019-04-25T03:32:45.068Z,71.82
2019-04-25T03:35:14.484Z,72.31
2019-04-25T03:37:43.628Z,71.48
2019-04-25T03:40:13.833Z,71.86
2019-04-25T03:42:43.936Z,71.69
2019-04-25T03:45:13.757Z,71.63
2019-04-25T03:47:43.238Z,72.06
2019-04-25T03:50:12.305Z,71.71
2019-04-25T03:52:41.272Z,71.62
2019-04-25T03:55:10.201Z,71.86
2019-04-25T03:57:38.705Z,72.32
2019-04-25T04:00:07.543Z,72.32
2019-04-25T04:02:36.485Z,72.29
2019-04-25T04:05:06.681Z,72.72
2019-04-25T04:07:34.506Z,72.40
2019-04-25T04:10:04.543Z,72.40
2019-04-25T04:12:33.948Z,72.12
2019-04-25T04:15:04.698Z,72.12
2019-04-25T04:17:41.061Z,72.22
2019-04-25T04:20:27.257Z,72.89
2019-04-25T04:23:03.182Z,72.89
2019-04-25T04:25:31.218Z,71.97
2019-04-25T04:27:59.239Z,71.68
2019-04-25T04:30:27.158Z,71.68
2019-04-25T04:32:55.231Z,71.52
2019-04-25T04:35:23.587Z,71.18
2019-04-25T04:37:51.637Z,70.83
2019-04-25T04:40:19.585Z,70.63
2019-04-25T04:42:48.124Z,70.63
2019-04-25T04:45:16.627Z,71.14
2019-04-25T04:47:44.681Z,71.00
2019-04-25T04:50:14.271Z,71.00
2019-04-25T04:52:43.979Z,70.82
2019-04-25T04:55:14.607Z,70.61
2019-04-25T04:57:43.488Z,70.34
2019-04-25T05:00:14.645Z,70.15
2019-04-25T05:02:59.599Z,70.35
2019-04-25T05:05:45.707Z,70.35
2019-04-25T05:08:21.832Z,70.33
2019-04-25T05:10:49.813Z,70.92
2019-04-25T05:13:17.999Z,70.60
2019-04-25T05:15:46.011Z,70.62
2019-04-25T05:18:15.727Z,70.67
2019-04-25T05:20:44.576Z,70.54
2019-04-25T05:23:13.431Z,70.78
2019-04-25T05:25:44.096Z,70.78
2019-04-25T05:28:12.996Z,71.60
2019-04-25T05:30:53.631Z,71.62
2019-04-25T05:33:22.723Z,71.77
2019-04-25T05:35:51.695Z,72.15
2019-04-25T05:38:20.105Z,71.55
2019-04-25T05:40:56.436Z,71.55
2019-04-25T05:43:25.710Z,71.13
2019-04-25T05:45:54.204Z,71.09
2019-04-25T05:48:22.002Z,70.73
2019-04-25T05:50:49.951Z,71.49
2019-04-25T05:53:18.569Z,71.32
2019-04-25T05:55:46.619Z,71.44
2019-04-25T05:58:14.539Z,70.93
2019-04-25T06:00:44.020Z,70.07
2019-04-25T06:03:13.652Z,70.07
2019-04-25T06:05:43.440Z,70.30
2019-04-25T06:08:14.015Z,69.78
2019-04-25T06:11:04.149Z,69.64
2019-04-25T06:13:46.407Z,69.73
2019-04-25T06:16:30.597Z,69.41
2019-04-25T06:19:36.056Z,69.68
2019-04-25T06:22:05.245Z,69.78
2019-04-25T06:24:44.811Z,69.32
2019-04-25T06:27:33.660Z,69.32
2019-04-25T06:30:22.614Z,69.32
2019-04-25T06:32:53.215Z,69.32
2019-04-25T06:35:24.713Z,69.48
2019-04-25T06:37:53.683Z,69.50
2019-04-25T06:40:25.092Z,69.73
2019-04-25T06:42:55.223Z,69.87
2019-04-25T06:45:44.127Z,69.15
2019-04-25T06:48:45.564Z,68.61
2019-04-25T06:51:13.760Z,68.64
2019-04-25T06:53:41.584Z,68.49
2019-04-25T06:56:09.593Z,68.47
2019-04-25T06:58:37.876Z,68.39
2019-04-25T07:01:06.264Z,67.98
2019-04-25T07:03:35.690Z,67.70
2019-04-25T07:06:04.225Z,67.55
2019-04-25T07:08:33.276Z,67.26
2019-04-25T07:11:01.819Z,67.27
2019-04-25T07:13:30.465Z,66.76
2019-04-25T07:15:58.656Z,66.64
2019-04-25T07:18:31.214Z,66.48
2019-04-25T07:20:57.156Z,66.89
2019-04-25T07:23:27.212Z,66.61
2019-04-25T07:26:08.006Z,65.71
2019-04-25T07:28:58.694Z,65.16
2019-04-25T07:31:46.224Z,64.35
2019-04-25T07:34:19.489Z,64.49
2019-04-25T07:36:47.555Z,63.61
2019-04-25T07:39:15.660Z,62.30
2019-04-25T07:41:44.268Z,61.86
2019-04-25T07:44:14.542Z,61.25
2019-04-25T07:46:43.381Z,60.89
2019-04-25T07:49:13.318Z,60.33
2019-04-25T07:51:41.458Z,59.29
2019-04-25T07:54:09.655Z,59.50
2019-04-25T07:56:37.932Z,59.33
2019-04-25T07:59:07.042Z,58.19
2019-04-25T08:01:37.502Z,57.09
2019-04-25T08:04:05.485Z,58.25
2019-04-25T08:06:34.573Z,57.16
2019-04-25T08:09:04.881Z,56.87
2019-04-25T08:11:34.166Z,56.42
2019-04-25T08:14:24.872Z,55.66
2019-04-25T08:16:55.729Z,54.71
2019-04-25T08:19:25.186Z,54.69
2019-04-25T08:21:54.046Z,53.89
2019-04-25T08:24:24.025Z,53.43
2019-04-25T08:26:53.447Z,52.80
2019-04-25T08:29:23.640Z,51.20
2019-04-25T08:31:53.527Z,51.73
2019-04-25T08:34:21.735Z,48.22
2019-04-25T08:36:49.744Z,48.25
2019-04-25T08:39:17.714Z,48.87
2019-04-25T08:41:46.036Z,47.35
2019-04-25T08:44:14.331Z,46.89
2019-04-25T08:46:44.255Z,48.16
2019-04-25T08:49:20.958Z,46.83
2019-04-25T08:51:49.517Z,46.51
2019-04-25T08:54:31.021Z,45.96
2019-04-25T08:57:00.932Z,44.87
2019-04-25T09:00:04.249Z,44.33
2019-04-25T09:02:52.400Z,43.07
2019-04-25T09:05:49.792Z,43.98
2019-04-25T09:08:17.842Z,43.92
2019-04-25T09:10:45.662Z,42.73
2019-04-25T09:13:13.684Z,41.18
2019-04-25T09:15:41.735Z,41.83
2019-04-25T09:18:09.776Z,41.60
2019-04-25T09:20:40.903Z,41.29
2019-04-25T09:23:08.003Z,41.81
2019-04-25T09:25:36.851Z,41.51
2019-04-25T09:28:05.242Z,40.88
2019-04-25T09:30:35.006Z,41.51
2019-04-25T09:33:04.703Z,39.61
2019-04-25T09:35:33.481Z,38.37
2019-04-25T09:38:01.409Z,40.10
2019-04-25T09:40:29.384Z,40.00
2019-04-25T09:42:58.027Z,39.95
2019-04-25T09:45:57.587Z,39.53
2019-04-25T09:48:51.635Z,38.98
2019-04-25T09:51:29.037Z,39.27
2019-04-25T09:54:23.745Z,38.71
2019-04-25T09:56:55.322Z,39.16
2019-04-25T09:59:27.992Z,38.95
2019-04-25T10:01:54.005Z,38.91
2019-04-25T10:04:23.095Z,38.43
2019-04-25T10:06:51.326Z,37.59
2019-04-25T10:09:19.380Z,37.57
2019-04-25T10:11:47.422Z,37.91
2019-04-25T10:14:56.300Z,37.75
2019-04-25T10:17:24.915Z,37.02
2019-04-25T10:19:52.891Z,35.58
2019-04-25T10:22:20.789Z,36.84
2019-04-25T10:24:59.974Z,34.87
2019-04-25T10:27:20.504Z,35.84
2019-04-25T10:29:53.601Z,36.04
2019-04-25T10:32:18.354Z,36.03
2019-04-25T10:34:46.380Z,36.38
2019-04-25T10:37:16.321Z,36.45
2019-04-25T10:39:45.041Z,36.41
2019-04-25T10:42:14.583Z,36.13
2019-04-25T10:44:42.505Z,36.04
2019-04-25T10:47:10.419Z,36.08
2019-04-25T10:49:38.304Z,35.96
2019-04-25T10:52:08.428Z,36.11
2019-04-25T10:54:36.671Z,35.75
2019-04-25T10:57:07.016Z,35.59
2019-04-25T10:59:35.692Z,35.57
2019-04-25T11:02:08.586Z,34.92
2019-04-25T11:04:51.696Z,35.38
2019-04-25T11:07:19.969Z,35.38
2019-04-25T11:09:48.115Z,34.78
2019-04-25T11:12:16.244Z,34.45
2019-04-25T11:14:44.389Z,34.78
2019-04-25T11:17:15.391Z,33.17
2019-04-25T11:19:44.537Z,33.09
2019-04-25T11:22:13.474Z,33.41
2019-04-25T11:24:42.400Z,33.35
2019-04-25T11:27:10.548Z,33.79
2019-04-25T11:29:38.671Z,34.41
2019-04-25T11:32:06.844Z,34.32
2019-04-25T11:34:34.727Z,34.33
2019-04-25T11:37:03.652Z,34.62
2019-04-25T11:39:56.013Z,34.52
2019-04-25T11:42:24.494Z,33.97
2019-04-25T11:44:54.142Z,33.66
2019-04-25T11:47:24.252Z,33.79
2019-04-25T11:49:54.190Z,33.82
2019-04-25T11:52:28.278Z,33.22
2019-04-25T11:54:52.969Z,33.20
2019-04-25T11:57:23.322Z,33.17
2019-04-25T11:59:52.329Z,32.75
2019-04-25T12:02:21.706Z,33.07
2019-04-25T12:04:49.649Z,32.61
2019-04-25T12:07:17.512Z,32.57
2019-04-25T12:09:46.743Z,32.90
2019-04-25T12:12:14.771Z,32.80
2019-04-25T12:14:44.212Z,33.08
2019-04-25T12:17:12.403Z,33.24
2019-04-25T12:19:40.216Z,33.55
2019-04-25T12:22:08.226Z,33.88
2019-04-25T12:24:36.363Z,33.65
2019-04-25T12:27:04.436Z,33.58
2019-04-25T12:29:33.674Z,33.48
2019-04-25T12:32:01.742Z,33.32
2019-04-25T12:34:30.066Z,33.09
2019-04-25T12:36:59.899Z,32.18
2019-04-25T12:39:27.812Z,32.07
2019-04-25T12:41:57.035Z,31.95
2019-04-25T12:44:46.270Z,31.96
2019-04-25T12:47:17.596Z,31.99
2019-04-25T12:49:46.623Z,32.40
2019-04-25T12:52:14.960Z,32.74
2019-04-25T12:54:44.071Z,32.12
2019-04-25T12:57:14.086Z,32.19
2019-04-25T12:59:44.995Z,31.55
2019-04-25T13:02:13.349Z,31.66
2019-04-25T13:04:41.437Z,32.13
2019-04-25T13:07:09.582Z,31.65
2019-04-25T13:09:37.412Z,31.60
2019-04-25T13:12:06.096Z,32.00
2019-04-25T13:14:34.108Z,32.51
2019-04-25T13:17:04.034Z,32.29
2019-04-25T13:19:31.713Z,32.33
2019-04-25T13:22:00.629Z,32.40
2019-04-25T13:24:28.871Z,32.52
2019-04-25T13:27:03.611Z,31.56
2019-04-25T13:30:09.537Z,32.04
2019-04-25T13:33:15.054Z,31.88
2019-04-25T13:35:45.711Z,31.28
2019-04-25T13:38:14.984Z,31.02
2019-04-25T13:40:42.994Z,30.04
2019-04-25T13:43:11.057Z,30.08
2019-04-25T13:45:39.175Z,30.47
2019-04-25T13:48:07.532Z,30.82
2019-04-25T13:50:35.563Z,30.75
2019-04-25T13:53:03.438Z,30.75
2019-04-25T13:55:32.172Z,30.57
2019-04-25T13:58:00.393Z,30.70
2019-04-25T14:00:28.731Z,30.23
2019-04-25T14:02:57.799Z,30.68
2019-04-25T14:05:26.736Z,30.28
2019-04-25T14:07:54.764Z,29.95
2019-04-25T14:10:25.104Z,28.78
2019-04-25T14:12:53.661Z,29.93
2019-04-25T14:15:25.284Z,29.45
2019-04-25T14:18:13.727Z,29.60
2019-04-25T14:20:45.621Z,29.78
2019-04-25T14:23:15.075Z,29.94
2019-04-25T14:25:43.310Z,30.14
2019-04-25T14:28:11.322Z,30.70
2019-04-25T14:30:39.820Z,30.56
2019-04-25T14:33:07.683Z,30.48
2019-04-25T14:35:38.701Z,30.10
2019-04-25T14:38:07.357Z,29.68
2019-04-25T14:40:35.456Z,30.29
2019-04-25T14:43:04.301Z,30.46
2019-04-25T14:45:44.059Z,30.34
2019-04-25T14:48:02.302Z,30.12
2019-04-25T14:50:30.090Z,30.26
2019-04-25T14:52:57.873Z,29.22
2019-04-25T14:55:53.454Z,29.55
2019-04-25T14:58:24.067Z,29.48
2019-04-25T15:00:52.300Z,28.63
2019-04-25T15:03:20.318Z,28.94
2019-04-25T15:05:48.164Z,28.68
2019-04-25T15:08:16.280Z,28.39
2019-04-25T15:10:44.035Z,28.24
2019-04-25T15:13:12.168Z,27.86
2019-04-25T15:15:40.220Z,27.77
2019-04-25T15:18:08.138Z,28.16
2019-04-25T15:20:35.990Z,28.08
2019-04-25T15:23:04.015Z,27.84
2019-04-25T15:25:31.977Z,27.79
2019-04-25T15:27:59.997Z,28.40
2019-04-25T15:30:30.854Z,28.63
2019-04-25T15:32:58.761Z,29.02
2019-04-25T15:35:36.324Z,29.06
2019-04-25T15:38:11.005Z,28.67
2019-04-25T15:40:58.315Z,28.64
2019-04-25T15:44:00.858Z,28.87
2019-04-25T15:46:32.289Z,28.43
2019-04-25T15:49:00.397Z,28.86
2019-04-25T15:51:28.336Z,28.62
2019-04-25T15:53:56.151Z,28.99
2019-04-25T15:56:23.904Z,28.67
2019-04-25T15:58:51.824Z,29.28
2019-04-25T16:01:19.894Z,29.28
2019-04-25T16:03:47.818Z,29.54
2019-04-25T16:06:15.761Z,29.57
2019-04-25T16:08:44.204Z,29.94
2019-04-25T16:11:12.082Z,30.03
2019-04-25T16:13:40.102Z,30.40
2019-04-25T16:16:08.066Z,30.57
2019-04-25T16:18:37.844Z,31.02
2019-04-25T16:21:06.435Z,31.09
2019-04-25T16:23:36.368Z,31.24
2019-04-25T16:26:05.546Z,31.19
2019-04-25T16:28:33.870Z,31.25
2019-04-25T16:31:04.497Z,31.24
2019-04-25T16:33:33.224Z,31.34
2019-04-25T16:36:01.395Z,31.99
2019-04-25T16:38:29.823Z,32.15
2019-04-25T16:40:57.979Z,32.21
2019-04-25T16:43:28.605Z,32.20
2019-04-25T16:45:58.112Z,32.46
2019-04-25T16:48:25.928Z,32.55
2019-04-25T16:50:53.901Z,32.57
2019-04-25T16:53:21.925Z,32.64
2019-04-25T16:55:49.990Z,32.81
2019-04-25T16:58:17.957Z,32.80
2019-04-25T17:00:55.070Z,32.75
2019-04-25T17:03:24.310Z,32.68
2019-04-25T17:05:52.734Z,32.66
2019-04-25T17:08:20.893Z,32.92
2019-04-25T17:10:56.068Z,33.04
2019-04-25T17:13:25.092Z,33.03
2019-04-25T17:16:21.381Z,32.98
2019-04-25T17:18:56.310Z,32.92
2019-04-25T17:21:24.280Z,32.96
2019-04-25T17:23:52.412Z,33.03
2019-04-25T17:26:20.569Z,33.03
2019-04-25T17:28:50.446Z,33.32
2019-04-25T17:31:26.304Z,33.54
2019-04-25T17:34:01.464Z,33.55
2019-04-25T17:36:38.919Z,33.67
2019-04-25T17:39:31.101Z,33.87
2019-04-25T17:42:09.660Z,34.01
2019-04-25T17:44:38.364Z,34.38
2019-04-25T17:47:06.902Z,34.69
2019-04-25T17:49:35.183Z,34.94
2019-04-25T17:52:03.102Z,35.25
2019-04-25T17:54:32.804Z,35.59
2019-04-25T17:57:01.738Z,36.01
2019-04-25T17:59:29.732Z,36.32
2019-04-25T18:01:57.786Z,36.53
2019-04-25T18:04:25.688Z,36.90
2019-04-25T18:06:53.685Z,37.41
2019-04-25T18:09:21.610Z,37.98
2019-04-25T18:11:51.059Z,38.13
2019-04-25T18:14:19.117Z,38.55
2019-04-25T18:16:48.081Z,38.81
2019-04-25T18:19:38.598Z,39.04
2019-04-25T18:22:17.053Z,39.14
2019-04-25T18:25:19.508Z,39.25
2019-04-25T18:27:57.813Z,39.58
2019-04-25T18:30:26.001Z,39.76
2019-04-25T18:33:10.236Z,39.98
2019-04-25T18:35:39.172Z,40.30
2019-04-25T18:38:37.976Z,40.51
2019-04-25T18:41:12.872Z,40.79
2019-04-25T18:44:03.436Z,40.81
2019-04-25T18:46:38.391Z,40.78
2019-04-25T18:49:06.528Z,40.99
2019-04-25T18:51:34.576Z,40.86
2019-04-25T18:54:41.056Z,40.98
2019-04-25T18:57:34.430Z,41.22
2019-04-25T19:00:20.341Z,41.38
2019-04-25T19:03:22.670Z,41.52
2019-04-25T19:05:49.589Z,41.54
2019-04-25T19:08:17.509Z,41.72
2019-04-25T19:10:45.481Z,42.02
2019-04-25T19:13:13.418Z,41.97
2019-04-25T19:15:41.323Z,42.08
2019-04-25T19:18:09.672Z,42.16
2019-04-25T19:20:37.575Z,42.34
2019-04-25T19:23:05.412Z,42.51
2019-04-25T19:25:33.526Z,43.35
2019-04-25T19:28:01.449Z,43.56
2019-04-25T19:30:29.473Z,43.62
2019-04-25T19:32:57.305Z,44.27
2019-04-25T19:35:25.258Z,44.31
2019-04-25T19:37:55.761Z,45.37
2019-04-25T19:40:44.020Z,45.42
2019-04-25T19:43:21.177Z,45.35
2019-04-25T19:45:49.156Z,45.06
2019-04-25T19:48:17.206Z,45.39
2019-04-25T19:50:46.227Z,45.59
2019-04-25T19:53:14.321Z,45.93
2019-04-25T19:55:43.356Z,45.65
2019-04-25T19:58:11.488Z,45.55
2019-04-25T20:00:39.473Z,45.92
2019-04-25T20:03:12.636Z,45.89
2019-04-25T20:06:00.072Z,46.28
2019-04-25T20:08:44.826Z,46.31
2019-04-25T20:11:19.404Z,46.41
2019-04-25T20:13:47.242Z,46.56
2019-04-25T20:16:15.717Z,46.76
2019-04-25T20:18:44.725Z,47.01
2019-04-25T20:21:13.317Z,47.13
2019-04-25T20:23:41.525Z,47.31
2019-04-25T20:26:09.279Z,48.05
2019-04-25T20:28:37.064Z,47.86
2019-04-25T20:31:04.999Z,47.88
2019-04-25T20:33:32.988Z,47.89
2019-04-25T20:36:00.950Z,47.69
2019-04-25T20:38:29.704Z,47.97
2019-04-25T20:40:58.671Z,47.74
2019-04-25T20:43:26.565Z,47.78
2019-04-25T20:45:54.465Z,47.90
2019-04-25T20:48:25.209Z,47.94
2019-04-25T20:50:53.160Z,47.92
2019-04-25T20:53:21.139Z,47.90
2019-04-25T20:55:49.076Z,47.75
2019-04-25T20:58:16.959Z,47.87
2019-04-25T21:00:48.302Z,47.73
2019-04-25T21:03:16.528Z,47.98
2019-04-25T21:05:46.471Z,48.04
2019-04-25T21:08:14.330Z,48.16
2019-04-25T21:10:42.366Z,48.31
2019-04-25T21:13:14.412Z,48.52
2019-04-25T21:16:00.563Z,48.64
2019-04-25T21:19:09.466Z,48.76
2019-04-25T21:21:34.826Z,48.84
2019-04-25T21:24:03.272Z,49.24
2019-04-25T21:26:31.933Z,49.13
2019-04-25T21:28:59.859Z,49.32
2019-04-25T21:31:27.806Z,49.47
2019-04-25T21:33:55.783Z,49.68
2019-04-25T21:36:24.019Z,49.89
2019-04-25T21:38:52.885Z,50.03
2019-04-25T21:41:53.679Z,50.22
2019-04-25T21:44:22.356Z,50.15
2019-04-25T21:46:50.209Z,50.28
2019-04-25T21:49:18.186Z,50.36
2019-04-25T21:51:46.006Z,50.41
2019-04-25T21:54:13.879Z,50.56
2019-04-25T21:56:42.102Z,50.64
2019-04-25T21:59:10.602Z,50.80
2019-04-25T22:01:40.757Z,51.02
2019-04-25T22:04:08.744Z,51.15
2019-04-25T22:06:37.182Z,51.47
2019-04-25T22:09:09.810Z,51.42
2019-04-25T22:11:37.844Z,51.67
2019-04-25T22:14:06.548Z,51.74
2019-04-25T22:16:34.693Z,51.96
2019-04-25T22:19:04.050Z,51.93
2019-04-25T22:21:38.086Z,52.10
2019-04-25T22:24:08.866Z,52.53
2019-04-25T22:26:32.128Z,52.41
2019-04-25T22:29:01.587Z,52.60
2019-04-25T22:31:34.872Z,52.67
2019-04-25T22:34:09.876Z,52.67
2019-04-25T22:36:38.135Z,52.81
2019-04-25T22:39:11.308Z,52.98
2019-04-25T22:41:42.125Z,53.02
2019-04-25T22:44:12.197Z,53.31
2019-04-25T22:46:40.607Z,53.80
2019-04-25T22:49:08.664Z,53.54
2019-04-25T22:51:36.655Z,53.72
2019-04-25T22:54:05.368Z,53.78
2019-04-25T22:56:33.462Z,53.91
2019-04-25T22:59:02.018Z,53.93
2019-04-25T23:01:52.719Z,53.96
2019-04-25T23:05:04.279Z,54.12
2019-04-25T23:07:22.008Z,54.22
2019-04-25T23:09:51.338Z,54.33
2019-04-25T23:12:20.034Z,54.56
2019-04-25T23:14:47.887Z,54.55
2019-04-25T23:17:15.881Z,54.78
2019-04-25T23:19:45.281Z,54.92
2019-04-25T23:22:13.652Z,55.17
2019-04-25T23:24:47.990Z,55.52
2019-04-25T23:27:25.678Z,55.53
2019-04-25T23:29:53.523Z,55.40
2019-04-25T23:32:22.155Z,55.62
2019-04-25T23:34:50.000Z,55.57
2019-04-25T23:37:18.514Z,55.80
2019-04-25T23:39:46.627Z,55.94
2019-04-25T23:42:15.577Z,56.71
2019-04-25T23:44:43.907Z,56.71
2019-04-25T23:47:12.134Z,56.59
2019-04-25T23:49:40.027Z,56.71
2019-04-25T23:52:08.658Z,57.60
2019-04-25T23:54:36.753Z,57.37
2019-04-25T23:57:05.542Z,57.20
2019-04-25T23:59:33.397Z,57.15
